createdAt,value
2023-03-23T00:00:02.517Z,980.9705
2023-03-23T00:01:01.714Z,980.9705
2023-03-23T00:02:02.874Z,980.8537
2023-03-23T00:03:02.011Z,980.8537
2023-03-23T00:04:02.273Z,980.7097
2023-03-23T00:05:01.796Z,980.9307
2023-03-23T00:06:02.273Z,981.0104
2023-03-23T00:07:02.506Z,980.8626
2023-03-23T00:09:02.688Z,980.7829
2023-03-23T00:10:03.083Z,980.845
2023-03-23T00:11:03.703Z,980.8804
2023-03-23T00:12:02.230Z,980.7807
2023-03-23T00:13:04.400Z,980.8178
2023-03-23T00:14:01.719Z,980.8604
2023-03-23T00:15:02.297Z,980.9314
2023-03-23T00:16:04.286Z,980.7807
2023-03-23T00:17:02.615Z,980.7452
2023-03-23T00:18:02.299Z,980.8161
2023-03-23T00:19:01.829Z,980.7364
2023-03-23T00:20:02.288Z,980.7452
2023-03-23T00:21:01.898Z,980.7829
2023-03-23T00:22:03.294Z,980.7834
2023-03-23T00:23:02.748Z,980.6837
2023-03-23T00:24:01.503Z,980.7363
2023-03-23T00:25:02.010Z,980.8022
2023-03-23T00:26:01.489Z,980.7401
2023-03-23T00:27:02.908Z,980.6554
2023-03-23T00:28:01.645Z,980.6266
2023-03-23T00:29:02.232Z,980.662
2023-03-23T00:30:01.698Z,980.7047
2023-03-23T00:31:03.179Z,980.6266
2023-03-23T00:32:02.673Z,980.5961
2023-03-23T00:33:01.416Z,980.5607
2023-03-23T00:34:03.594Z,980.8569
2023-03-23T00:35:01.427Z,980.8287
2023-03-23T00:36:01.926Z,980.5181
2023-03-23T00:37:03.751Z,980.8569
2023-03-23T00:38:02.258Z,980.8569
2023-03-23T00:39:01.571Z,980.5253
2023-03-23T00:40:02.104Z,980.6266
2023-03-23T00:41:01.572Z,980.5253
2023-03-23T00:42:02.847Z,980.4837
2023-03-23T00:43:01.660Z,980.4677
2023-03-23T00:44:02.215Z,980.6266
2023-03-23T00:45:01.688Z,980.4499
2023-03-23T00:46:02.246Z,980.4854
2023-03-23T00:47:02.440Z,980.4239
2023-03-23T00:48:02.251Z,980.3956
2023-03-23T00:49:01.837Z,980.4305
2023-03-23T00:50:02.316Z,980.322
2023-03-23T00:51:03.517Z,980.5369
2023-03-23T00:53:02.478Z,980.5042
2023-03-23T00:54:01.486Z,980.4771
2023-03-23T00:55:01.998Z,980.3397
2023-03-23T00:56:01.488Z,980.3397
2023-03-23T00:57:04.475Z,980.3397
2023-03-23T00:58:02.024Z,980.4183
2023-03-23T00:59:01.528Z,980.221
2023-03-23T01:00:05.632Z,980.4277
2023-03-23T01:01:01.494Z,980.2499
2023-03-23T01:02:04.842Z,980.287
2023-03-23T01:03:03.725Z,980.3158
2023-03-23T01:04:03.055Z,980.4006
2023-03-23T01:05:03.005Z,980.2299
2023-03-23T01:06:01.653Z,980.3718
2023-03-23T01:07:04.698Z,980.2703
2023-03-23T01:08:02.191Z,980.3125
2023-03-23T01:09:03.437Z,980.3125
2023-03-23T01:10:03.787Z,980.1722
2023-03-23T01:11:01.688Z,980.2499
2023-03-23T01:12:03.139Z,980.2787
2023-03-23T01:13:01.727Z,980.1517
2023-03-23T01:14:02.187Z,980.2992
2023-03-23T01:15:01.662Z,980.2121
2023-03-23T01:16:03.088Z,980.2432
2023-03-23T01:17:04.135Z,980.2415
2023-03-23T01:18:03.442Z,980.4394
2023-03-23T01:19:02.205Z,980.0446
2023-03-23T01:20:01.658Z,980.0242
2023-03-23T01:21:02.100Z,980.1395
2023-03-23T01:22:03.925Z,980.2194
2023-03-23T01:23:01.398Z,980.1599
2023-03-23T01:24:01.875Z,980.0158
2023-03-23T01:25:03.012Z,980.0274
2023-03-23T01:26:03.458Z,980.0735
2023-03-23T01:27:02.189Z,980.1311
2023-03-23T01:28:02.213Z,980.0007
2023-03-23T01:29:01.489Z,980.1653
2023-03-23T01:30:01.957Z,980.0024
2023-03-23T01:31:01.401Z,980.0961
2023-03-23T01:32:04.370Z,979.9718
2023-03-23T01:33:03.533Z,980.132
2023-03-23T01:34:02.281Z,980.1303
2023-03-23T01:35:01.794Z,980.0504
2023-03-23T01:36:02.319Z,980.132
2023-03-23T01:37:02.657Z,980.061
2023-03-23T01:38:02.894Z,980.0988
2023-03-23T01:39:01.808Z,980.0682
2023-03-23T01:40:02.287Z,980.1121
2023-03-23T01:41:01.777Z,980.0699
2023-03-23T01:42:03.915Z,980.0344
2023-03-23T01:43:02.999Z,980.065
2023-03-23T01:44:01.800Z,980.0024
2023-03-23T01:45:02.310Z,980.1183
2023-03-23T01:46:01.810Z,980.2364
2023-03-23T01:47:02.066Z,980.0606
2023-03-23T01:48:01.981Z,979.9891
2023-03-23T01:49:03.197Z,980.0206
2023-03-23T01:50:02.011Z,980.0948
2023-03-23T01:51:01.483Z,980.2551
2023-03-23T01:52:04.689Z,979.9794
2023-03-23T01:53:01.961Z,980.1286
2023-03-23T01:54:01.429Z,980.1307
2023-03-23T01:55:01.922Z,980.0176
2023-03-23T01:56:03.090Z,979.8978
2023-03-23T01:57:02.482Z,979.9062
2023-03-23T01:58:01.616Z,980.0948
2023-03-23T01:59:01.963Z,979.99
2023-03-23T02:00:03.182Z,979.8813
2023-03-23T02:01:01.999Z,979.9944
2023-03-23T02:02:03.722Z,980.061
2023-03-23T02:03:02.124Z,980.0783
2023-03-23T02:04:01.585Z,979.9701
2023-03-23T02:05:02.157Z,979.9052
2023-03-23T02:06:03.219Z,979.9817
2023-03-23T02:07:04.414Z,979.9142
2023-03-23T02:08:01.996Z,979.943
2023-03-23T02:09:01.391Z,979.9741
2023-03-23T02:10:01.877Z,979.8783
2023-03-23T02:11:01.400Z,979.8506
2023-03-23T02:12:02.654Z,979.9582
2023-03-23T02:13:01.375Z,979.8503
2023-03-23T02:14:01.911Z,979.848
2023-03-23T02:15:03.534Z,979.8275
2023-03-23T02:16:01.409Z,979.944
2023-03-23T02:17:04.322Z,980.0387
2023-03-23T02:18:02.066Z,980.0272
2023-03-23T02:19:02.168Z,979.886
2023-03-23T02:20:03.319Z,979.8623
2023-03-23T02:21:02.201Z,979.9675
2023-03-23T02:22:02.447Z,979.8632
2023-03-23T02:23:02.092Z,979.8992
2023-03-23T02:24:03.374Z,979.9762
2023-03-23T02:25:02.091Z,979.9762
2023-03-23T02:26:03.236Z,979.9085
2023-03-23T02:27:02.603Z,980.0027
2023-03-23T02:28:01.745Z,979.9085
2023-03-23T02:29:03.766Z,980.0016
2023-03-23T02:30:01.576Z,979.9085
2023-03-23T02:31:02.092Z,979.8841
2023-03-23T02:32:02.346Z,979.8448
2023-03-23T02:33:03.807Z,979.8587
2023-03-23T02:34:01.601Z,979.7978
2023-03-23T02:35:03.807Z,979.8191
2023-03-23T02:36:01.673Z,979.8619
2023-03-23T02:37:02.741Z,980.0858
2023-03-23T02:38:02.601Z,979.75
2023-03-23T02:39:01.311Z,979.995
2023-03-23T02:40:01.858Z,979.8332
2023-03-23T02:41:02.289Z,979.9085
2023-03-23T02:42:02.636Z,979.9085
2023-03-23T02:43:01.387Z,979.9085
2023-03-23T02:44:03.592Z,979.944
2023-03-23T02:45:03.072Z,979.801
2023-03-23T02:46:01.889Z,979.8587
2023-03-23T02:47:02.433Z,979.9085
2023-03-23T02:48:02.808Z,979.6485
2023-03-23T02:49:01.576Z,979.7145
2023-03-23T02:50:01.998Z,979.6635
2023-03-23T02:51:03.157Z,979.6586
2023-03-23T02:52:03.281Z,979.801
2023-03-23T02:53:01.952Z,979.7978
2023-03-23T02:54:03.817Z,979.8587
2023-03-23T02:55:01.643Z,979.8332
2023-03-23T02:56:03.788Z,979.7978
2023-03-23T02:57:02.188Z,979.7358
2023-03-23T02:58:04.915Z,979.6656
2023-03-23T02:59:02.344Z,979.7802
2023-03-23T03:00:01.772Z,979.6788
2023-03-23T03:01:03.889Z,979.6229
2023-03-23T03:02:03.751Z,979.6319
2023-03-23T03:03:02.684Z,979.6823
2023-03-23T03:04:02.615Z,979.752
2023-03-23T03:05:01.634Z,979.8067
2023-03-23T03:06:01.873Z,979.6915
2023-03-23T03:07:02.119Z,979.7978
2023-03-23T03:08:02.660Z,979.7978
2023-03-23T03:09:01.504Z,979.665
2023-03-23T03:10:03.660Z,979.7364
2023-03-23T03:11:03.357Z,979.7891
2023-03-23T03:12:02.831Z,979.7842
2023-03-23T03:13:03.431Z,979.7666
2023-03-23T03:14:03.894Z,979.6803
2023-03-23T03:15:03.498Z,979.7324
2023-03-23T03:16:03.965Z,979.8614
2023-03-23T03:17:04.093Z,979.6328
2023-03-23T03:18:01.763Z,979.7718
2023-03-23T03:19:02.075Z,979.6524
2023-03-23T03:20:01.572Z,979.6043
2023-03-23T03:21:03.808Z,979.5551
2023-03-23T03:22:02.712Z,979.5329
2023-03-23T03:23:03.164Z,979.6636
2023-03-23T03:24:01.911Z,979.564
2023-03-23T03:25:01.421Z,979.5065
2023-03-23T03:26:01.877Z,979.6012
2023-03-23T03:27:02.019Z,979.4441
2023-03-23T03:28:03.886Z,979.703
2023-03-23T03:29:01.581Z,979.4835
2023-03-23T03:30:02.114Z,979.6423
2023-03-23T03:31:01.493Z,979.5644
2023-03-23T03:32:02.861Z,979.529
2023-03-23T03:33:01.654Z,979.6423
2023-03-23T03:34:02.132Z,979.4122
2023-03-23T03:35:01.570Z,979.6849
2023-03-23T03:36:02.070Z,979.5183
2023-03-23T03:37:04.140Z,979.6423
2023-03-23T03:38:02.020Z,979.468
2023-03-23T03:39:02.061Z,979.6423
2023-03-23T03:40:01.570Z,979.6423
2023-03-23T03:41:02.068Z,979.4122
2023-03-23T03:42:02.709Z,979.6777
2023-03-23T03:43:02.407Z,979.5716
2023-03-23T03:44:01.735Z,979.6423
2023-03-23T03:45:02.221Z,979.5183
2023-03-23T03:46:01.677Z,979.3817
2023-03-23T03:47:02.841Z,979.2847
2023-03-23T03:48:03.787Z,979.4688
2023-03-23T03:49:02.282Z,979.4196
2023-03-23T03:50:01.722Z,979.3974
2023-03-23T03:51:02.281Z,979.4153
2023-03-23T03:52:02.741Z,979.4064
2023-03-23T03:53:02.050Z,979.4622
2023-03-23T03:54:02.996Z,979.4641
2023-03-23T03:55:01.820Z,979.5194
2023-03-23T03:56:02.273Z,979.34
2023-03-23T03:57:02.437Z,979.2825
2023-03-23T03:58:01.669Z,979.3976
2023-03-23T03:59:21.438Z,979.3844
2023-03-23T04:00:03.150Z,979.3795
2023-03-23T04:01:01.968Z,979.3712
2023-03-23T04:02:02.446Z,979.3844
2023-03-23T04:03:04.269Z,979.2296
2023-03-23T04:04:01.767Z,979.214
2023-03-23T04:05:02.218Z,979.349
2023-03-23T04:06:01.726Z,979.1409
2023-03-23T04:07:04.496Z,979.2249
2023-03-23T04:08:09.624Z,979.1302
2023-03-23T04:09:07.713Z,979.1494
2023-03-23T04:10:03.806Z,979.1296
2023-03-23T04:11:01.581Z,979.2363
2023-03-23T04:12:02.972Z,979.2363
2023-03-23T04:13:03.655Z,979.2315
2023-03-23T04:14:02.134Z,979.3976
2023-03-23T04:15:06.304Z,979.1607
2023-03-23T04:16:07.178Z,979.3466
2023-03-23T04:17:02.464Z,979.2453
2023-03-23T04:18:02.548Z,979.1566
2023-03-23T04:19:03.419Z,979.3462
2023-03-23T04:20:02.203Z,979.1489
2023-03-23T04:21:01.736Z,979.2773
2023-03-23T04:22:03.126Z,979.3386
2023-03-23T04:23:03.873Z,979.2624
2023-03-23T04:24:01.482Z,979.2084
2023-03-23T04:25:02.115Z,979.2623
2023-03-23T04:26:01.474Z,979.3661
2023-03-23T04:27:02.930Z,979.2598
2023-03-23T04:28:01.966Z,979.2904
2023-03-23T04:29:03.972Z,979.2946
2023-03-23T04:30:01.841Z,979.2598
2023-03-23T04:31:02.322Z,979.2904
2023-03-23T04:32:02.657Z,979.306
2023-03-23T04:33:03.494Z,979.204
2023-03-23T04:34:02.049Z,979.4591
2023-03-23T04:35:12.877Z,979.4789
2023-03-23T04:36:02.249Z,979.5011
2023-03-23T04:37:02.402Z,979.3727
2023-03-23T04:38:01.824Z,979.4015
2023-03-23T04:39:01.945Z,979.4614
2023-03-23T04:40:01.325Z,979.3727
2023-03-23T04:41:01.894Z,979.4789
2023-03-23T04:42:02.180Z,979.4453
2023-03-23T04:43:04.025Z,979.4525
2023-03-23T04:44:01.639Z,979.4614
2023-03-23T04:45:02.122Z,979.4081
2023-03-23T04:46:01.650Z,979.5451
2023-03-23T04:47:01.818Z,979.5771
2023-03-23T04:48:01.904Z,979.5566
2023-03-23T04:49:01.378Z,979.4569
2023-03-23T04:50:02.006Z,979.484
2023-03-23T04:51:01.472Z,979.4733
2023-03-23T04:52:03.180Z,979.4817
2023-03-23T04:53:02.250Z,979.5309
2023-03-23T04:54:02.230Z,979.4782
2023-03-23T04:55:01.648Z,979.409
2023-03-23T04:56:03.790Z,979.4782
2023-03-23T04:57:02.598Z,979.4182
2023-03-23T04:58:01.659Z,979.5386
2023-03-23T04:59:02.004Z,979.3878
2023-03-23T05:00:01.399Z,979.4322
2023-03-23T05:01:01.958Z,979.3102
2023-03-23T07:52:10.383Z,980.6159
2023-03-23T07:53:02.550Z,980.7414
2023-03-23T07:54:01.537Z,980.8169
2023-03-23T07:55:03.726Z,980.7119
2023-03-23T07:56:01.645Z,980.6763
2023-03-23T07:57:03.813Z,980.6202
2023-03-23T07:58:01.465Z,980.6291
2023-03-23T07:59:03.707Z,980.7756
2023-03-23T08:00:01.462Z,980.699
2023-03-23T08:01:01.989Z,980.699
2023-03-23T08:02:02.270Z,980.6796
2023-03-23T08:03:02.585Z,980.593
2023-03-23T08:04:03.574Z,980.6879
2023-03-23T08:06:01.917Z,980.8071
2023-03-23T08:07:02.257Z,980.6135
2023-03-23T08:08:02.199Z,980.6939
2023-03-23T08:09:01.598Z,980.5785
2023-03-23T08:10:02.004Z,980.5847
2023-03-23T08:11:01.522Z,980.6185
2023-03-23T08:12:02.939Z,980.659
2023-03-23T08:13:01.966Z,980.8033
2023-03-23T08:15:03.613Z,980.7167
2023-03-23T08:16:01.409Z,980.7456
2023-03-23T08:17:03.340Z,980.7456
2023-03-23T08:18:03.736Z,980.7456
2023-03-23T08:19:08.296Z,980.6657
2023-03-23T08:20:01.959Z,980.628
2023-03-23T08:21:01.517Z,980.6635
2023-03-23T08:22:02.178Z,980.7217
2023-03-23T08:23:02.351Z,980.7656
2023-03-23T08:24:01.584Z,980.679
2023-03-23T08:25:02.068Z,980.7012
2023-03-23T08:26:01.598Z,980.5858
2023-03-23T08:27:02.970Z,980.5481
2023-03-23T08:28:03.535Z,980.7079
2023-03-23T08:29:02.533Z,980.5908
2023-03-23T08:30:01.913Z,980.699
2023-03-23T08:31:02.287Z,980.6796
2023-03-23T08:32:02.852Z,980.7145
2023-03-23T08:33:04.790Z,980.5836
2023-03-23T08:34:03.844Z,980.6013
2023-03-23T08:35:01.602Z,980.497
2023-03-23T08:36:02.222Z,980.7301
2023-03-23T08:37:04.496Z,980.532
2023-03-23T08:38:01.860Z,980.5031
2023-03-23T08:39:02.426Z,980.6724
2023-03-23T08:40:02.010Z,980.4349
2023-03-23T08:41:01.382Z,980.5569
2023-03-23T08:42:02.949Z,980.5464
2023-03-23T08:43:01.693Z,980.5092
2023-03-23T08:44:03.890Z,980.6291
2023-03-23T08:45:03.337Z,980.6069
2023-03-23T08:46:02.219Z,980.5048
2023-03-23T08:47:02.840Z,980.6675
2023-03-23T08:48:01.651Z,980.703
2023-03-23T08:49:02.106Z,980.8096
2023-03-23T08:50:01.688Z,980.7569
2023-03-23T08:51:02.141Z,980.6736
2023-03-23T08:52:02.499Z,980.5581
2023-03-23T08:53:02.833Z,980.5431
2023-03-23T08:54:01.812Z,980.6603
2023-03-23T08:55:02.308Z,980.7892
2023-03-23T08:56:01.803Z,980.7453
2023-03-23T08:58:02.586Z,980.6981
2023-03-23T08:59:01.346Z,980.5892
2023-03-23T09:00:01.890Z,980.5537
2023-03-23T09:01:01.320Z,980.5809
2023-03-23T09:02:03.864Z,980.632
2023-03-23T09:03:02.423Z,980.6098
2023-03-23T09:04:04.255Z,980.5453
2023-03-23T09:05:01.501Z,980.7321
2023-03-23T09:06:01.977Z,980.632
2023-03-23T09:07:02.287Z,980.6315
2023-03-23T09:08:04.736Z,980.712
2023-03-23T09:09:01.725Z,980.7254
2023-03-23T09:10:03.914Z,980.7815
2023-03-23T09:11:01.712Z,980.8099
2023-03-23T09:12:04.018Z,980.7727
2023-03-23T09:13:01.431Z,980.7215
2023-03-23T09:14:03.567Z,980.8638
2023-03-23T09:15:01.403Z,980.8622
2023-03-23T09:16:02.148Z,980.7894
2023-03-23T09:17:03.906Z,980.7516
2023-03-23T09:18:02.596Z,980.7717
2023-03-23T09:19:01.720Z,980.9346
2023-03-23T09:20:03.965Z,980.7967
2023-03-23T09:21:03.522Z,980.8396
2023-03-23T09:22:02.195Z,980.8963
2023-03-23T09:23:02.029Z,980.6082
2023-03-23T09:24:01.653Z,980.6939
2023-03-23T09:25:02.102Z,980.636
2023-03-23T09:26:01.551Z,980.8963
2023-03-23T09:27:04.397Z,980.6855
2023-03-23T09:28:02.233Z,980.7501
2023-03-23T09:29:03.153Z,980.6705
2023-03-23T09:30:02.025Z,980.7345
2023-03-23T09:31:01.488Z,980.5971
2023-03-23T09:32:02.699Z,980.7685
2023-03-23T09:33:03.250Z,980.7462
2023-03-23T09:34:02.106Z,980.8314
2023-03-23T09:35:01.585Z,980.6439
2023-03-23T09:36:02.065Z,980.6511
2023-03-23T09:37:02.437Z,980.7735
2023-03-23T09:38:01.833Z,980.8008
2023-03-23T09:39:02.232Z,980.7719
2023-03-23T09:40:06.663Z,980.8876
2023-03-23T09:41:01.844Z,980.9455
2023-03-23T09:42:02.922Z,980.9744
2023-03-23T09:43:01.876Z,981.0934
2023-03-23T09:44:01.342Z,981.0489
2023-03-23T09:45:03.648Z,980.9165
2023-03-23T09:46:01.344Z,980.872
2023-03-23T09:47:02.582Z,981.0167
2023-03-23T09:48:01.742Z,980.9878
2023-03-23T09:49:01.986Z,981.039
2023-03-23T09:50:01.498Z,980.9588
2023-03-23T09:51:01.967Z,981.0373
2023-03-23T09:52:03.071Z,981.1241
2023-03-23T09:53:02.721Z,981.1191
2023-03-23T09:54:03.218Z,981.0612
2023-03-23T09:55:02.332Z,981.381
2023-03-23T09:56:02.392Z,981.2313
2023-03-23T09:57:02.609Z,980.8842
2023-03-23T09:58:02.433Z,981.2758
2023-03-23T09:59:01.822Z,981.1244
2023-03-23T10:00:02.277Z,981.249
2023-03-23T10:01:03.517Z,981.0326
2023-03-23T10:02:02.386Z,981.2061
2023-03-23T10:03:03.755Z,981.1483
2023-03-23T10:04:01.437Z,981.249
2023-03-23T10:05:03.650Z,981.2401
2023-03-23T10:06:01.423Z,981.2179
2023-03-23T10:07:02.900Z,981.2669
2023-03-23T10:08:01.828Z,981.1429
2023-03-23T10:09:03.798Z,981.0778
2023-03-23T10:10:03.335Z,981.2348
2023-03-23T10:11:03.874Z,981.2059
2023-03-23T10:12:02.622Z,981.1191
2023-03-23T10:13:01.386Z,981.0917
2023-03-23T10:14:01.964Z,981.0323
2023-03-23T10:15:03.084Z,981.4952
2023-03-23T10:16:01.955Z,981.3098
2023-03-23T10:17:03.946Z,981.1067
2023-03-23T10:18:01.790Z,981.2059
2023-03-23T10:19:01.956Z,981.1191
2023-03-23T10:20:03.160Z,981.2927
2023-03-23T10:21:02.036Z,981.4952
2023-03-23T10:22:04.151Z,981.2637
2023-03-23T10:23:03.237Z,981.0612
2023-03-23T10:24:01.958Z,981.0612
2023-03-23T10:25:01.497Z,980.8892
2023-03-23T10:26:03.632Z,981.0033
2023-03-23T10:27:02.386Z,981.0323
2023-03-23T10:28:02.235Z,981.1191
2023-03-23T10:29:01.732Z,981.0033
2023-03-23T10:30:02.220Z,981.01
2023-03-23T10:31:01.732Z,981.0033
2023-03-23T10:33:02.682Z,981.1006
2023-03-23T10:34:01.593Z,981.0934
2023-03-23T10:35:03.745Z,981.2669
2023-03-23T10:36:01.600Z,981.1601
2023-03-23T10:37:02.932Z,981.0066
2023-03-23T10:38:02.388Z,981.2602
2023-03-23T10:39:02.347Z,981.1601
2023-03-23T10:40:01.814Z,981.1601
2023-03-23T10:42:02.858Z,981.0176
2023-03-23T10:43:01.679Z,981.0465
2023-03-23T10:44:02.243Z,981.1601
2023-03-23T10:45:01.894Z,981.1601
2023-03-23T10:46:01.548Z,981.0888
2023-03-23T10:47:02.834Z,981.249
2023-03-23T10:48:03.846Z,981.249
2023-03-23T10:49:01.398Z,981.359
2023-03-23T10:50:01.952Z,981.2594
2023-03-23T10:51:02.118Z,981.117
2023-03-23T10:52:02.480Z,981.2342
2023-03-23T10:53:02.230Z,981.2342
2023-03-23T10:54:03.349Z,981.2586
2023-03-23T10:55:02.188Z,981.2225
2023-03-23T10:56:01.642Z,981.2958
2023-03-23T10:57:04.006Z,981.2128
2023-03-23T10:58:01.843Z,981.2639
2023-03-23T10:59:03.917Z,981.4084
2023-03-23T11:00:01.740Z,981.2439
2023-03-23T11:01:02.300Z,981.33
2023-03-23T12:54:36.398Z,985.4427
2023-03-23T12:55:02.327Z,981.1132
2023-03-23T12:56:02.043Z,981.0931
2023-03-23T12:57:02.496Z,981.073
2023-03-23T12:58:01.533Z,981.1191
2023-03-23T12:59:00.975Z,981.0338
2023-03-23T13:00:01.901Z,981.2657
2023-03-23T13:01:01.410Z,980.9568
2023-03-23T13:02:04.674Z,980.9947
2023-03-23T13:03:03.542Z,981.0392
2023-03-23T13:04:02.484Z,981.0921
2023-03-23T13:05:03.939Z,981.1238
2023-03-23T13:06:01.665Z,981.1833
2023-03-23T13:07:02.225Z,981.1047
2023-03-23T13:08:02.625Z,981.1047
2023-03-23T13:09:01.490Z,981.1047
2023-03-23T13:10:02.056Z,980.9693
2023-03-23T13:11:01.575Z,981.1938
2023-03-23T13:12:03.893Z,981.167
2023-03-23T13:13:03.569Z,981.0544
2023-03-23T13:14:01.395Z,981.0922
2023-03-23T13:15:03.564Z,981.0833
2023-03-23T13:16:01.390Z,981.2994
2023-03-23T13:17:02.784Z,981.3986
2023-03-23T13:18:03.363Z,981.2828
2023-03-23T13:19:03.812Z,981.1085
2023-03-23T13:20:01.559Z,981.1938
2023-03-23T13:21:02.063Z,981.1493
2023-03-23T13:22:02.384Z,981.112
2023-03-23T13:23:02.479Z,981.2262
2023-03-23T13:24:01.641Z,981.0586
2023-03-23T13:25:02.252Z,981.3622
2023-03-23T13:26:01.723Z,980.9566
2023-03-23T13:27:02.281Z,980.9411
2023-03-23T13:28:02.214Z,981.3333
2023-03-23T13:29:01.673Z,980.9856
2023-03-23T13:30:02.232Z,981.0586
2023-03-23T13:31:01.754Z,981.1015
2023-03-23T13:32:04.757Z,981.0235
2023-03-23T13:33:02.126Z,980.9232
2023-03-23T13:34:01.679Z,981.2262
2023-03-23T13:35:02.250Z,980.8207
2023-03-23T13:36:02.778Z,980.7249
2023-03-23T13:37:02.445Z,980.7969
2023-03-23T13:38:02.569Z,980.7763
2023-03-23T13:39:01.819Z,980.7012
2023-03-23T13:40:02.144Z,980.8369
2023-03-23T13:41:01.830Z,980.9172
2023-03-23T13:42:04.606Z,980.8273
2023-03-23T13:43:02.123Z,980.7776
2023-03-23T13:44:01.688Z,980.8067
2023-03-23T13:45:02.215Z,980.9345
2023-03-23T13:46:01.677Z,980.8357
2023-03-23T13:47:04.810Z,980.7776
2023-03-23T13:48:01.893Z,980.7285
2023-03-23T13:49:05.299Z,980.7369
2023-03-23T13:50:01.940Z,980.7079
2023-03-23T13:51:01.724Z,980.7793
2023-03-23T13:52:02.215Z,980.7748
2023-03-23T13:53:02.186Z,980.7926
2023-03-23T13:54:03.290Z,980.8015
2023-03-23T13:55:02.103Z,980.6448
2023-03-23T13:56:05.862Z,980.7763
2023-03-23T13:57:04.651Z,980.749
2023-03-23T13:58:02.050Z,980.6776
2023-03-23T13:59:01.589Z,980.7133
2023-03-23T14:00:02.068Z,980.6352
2023-03-23T14:01:01.567Z,980.9179
2023-03-23T14:02:02.119Z,980.6603
2023-03-23T14:03:03.813Z,980.8922
2023-03-23T14:04:01.489Z,980.7963
2023-03-23T14:05:01.969Z,980.7094
2023-03-23T14:06:03.164Z,980.7099
2023-03-23T14:07:02.847Z,980.8632
2023-03-23T14:08:03.655Z,980.7339
2023-03-23T14:10:02.591Z,980.5644
2023-03-23T14:11:01.709Z,980.6669
2023-03-23T14:13:02.664Z,980.6702
2023-03-23T14:14:01.734Z,980.6797
2023-03-23T14:15:02.213Z,980.5856
2023-03-23T14:16:01.670Z,980.6591
2023-03-23T14:18:02.895Z,980.8484
2023-03-23T14:19:03.425Z,980.8195
2023-03-23T14:20:02.214Z,980.8195
2023-03-23T14:21:01.739Z,980.7203
2023-03-23T14:22:04.573Z,980.7158
2023-03-23T14:23:01.986Z,980.7598
2023-03-23T14:24:03.261Z,980.6818
2023-03-23T14:25:01.981Z,980.6551
2023-03-23T14:26:03.158Z,980.684
2023-03-23T14:27:04.647Z,980.684
2023-03-23T14:28:02.417Z,980.684
2023-03-23T14:29:01.739Z,980.7575
2023-03-23T14:30:03.897Z,980.5705
2023-03-23T14:31:01.676Z,980.7441
2023-03-23T14:32:03.650Z,980.6862
2023-03-23T14:33:02.193Z,980.7013
2023-03-23T14:34:01.585Z,980.7441
2023-03-23T14:35:03.840Z,980.851
2023-03-23T14:36:03.238Z,980.713
2023-03-23T14:37:01.986Z,980.7548
2023-03-23T14:38:03.741Z,980.7108
2023-03-23T14:39:01.968Z,980.8689
2023-03-23T14:40:03.205Z,980.6239
2023-03-23T14:41:01.971Z,980.7242
2023-03-23T14:42:02.292Z,980.6818
2023-03-23T14:43:02.211Z,980.6239
2023-03-23T14:44:01.737Z,980.6818
2023-03-23T14:45:02.263Z,980.7308
2023-03-23T14:46:01.793Z,980.8689
2023-03-23T14:47:02.793Z,980.7108
2023-03-23T14:48:04.264Z,980.7976
2023-03-23T14:49:03.320Z,980.9335
2023-03-23T14:50:01.907Z,980.8689
2023-03-23T14:51:03.561Z,980.6663
2023-03-23T14:52:02.890Z,980.6507
2023-03-23T14:53:03.465Z,980.6663
2023-03-23T14:54:02.188Z,980.7019
2023-03-23T14:55:01.778Z,980.7019
2023-03-23T14:56:02.270Z,980.7887
2023-03-23T14:57:02.270Z,980.8316
2023-03-23T14:58:02.778Z,980.7442
2023-03-23T14:59:03.300Z,980.7158
2023-03-23T15:00:03.716Z,980.7158
2023-03-23T15:01:01.579Z,980.6663
2023-03-23T15:02:02.677Z,981.0204
2023-03-23T15:03:04.907Z,980.7976
2023-03-23T15:04:04.252Z,980.8416
2023-03-23T15:05:02.475Z,980.8867
2023-03-23T15:06:01.459Z,980.9668
2023-03-23T15:07:02.646Z,981.1115
2023-03-23T15:08:01.369Z,980.9245
2023-03-23T15:09:01.853Z,980.8443
2023-03-23T15:10:01.300Z,980.8955
2023-03-23T15:11:03.447Z,981.0314
2023-03-23T15:12:02.058Z,980.9863
2023-03-23T15:13:02.094Z,980.9134
2023-03-23T15:14:01.395Z,981.0292
2023-03-23T15:15:03.529Z,980.9863
2023-03-23T15:16:01.373Z,981.0225
2023-03-23T15:17:04.369Z,980.9863
2023-03-23T15:18:01.889Z,981.205
2023-03-23T15:19:03.910Z,981.0893
2023-03-23T15:20:01.723Z,981.1115
2023-03-23T15:21:02.197Z,981.0536
2023-03-23T15:22:02.431Z,981.0759
2023-03-23T15:23:02.566Z,981.2139
2023-03-23T15:24:03.388Z,980.9328
2023-03-23T15:25:02.305Z,981.0997
2023-03-23T15:26:03.407Z,981.1086
2023-03-23T15:27:03.058Z,981.1236
2023-03-23T15:28:01.918Z,981.0663
2023-03-23T15:30:01.891Z,981.0456
2023-03-23T15:31:01.301Z,981.2415
2023-03-23T15:32:04.607Z,981.2602
2023-03-23T15:33:02.454Z,981.3023
2023-03-23T15:34:03.243Z,981.2498
2023-03-23T15:35:12.394Z,981.2958
2023-03-23T15:36:03.136Z,981.0683
2023-03-23T15:37:04.482Z,981.3522
2023-03-23T15:38:03.526Z,981.4405
2023-03-23T15:39:01.509Z,981.4075
2023-03-23T15:40:02.044Z,981.5587
2023-03-23T15:41:01.506Z,981.4075
2023-03-23T15:42:04.702Z,981.4364
2023-03-23T15:43:02.268Z,981.4803
2023-03-23T15:44:03.400Z,981.4097
2023-03-23T15:45:02.186Z,981.4097
2023-03-23T15:46:01.711Z,981.323
2023-03-23T15:47:07.165Z,981.2652
2023-03-23T15:48:02.365Z,981.2652
2023-03-23T15:49:03.265Z,981.2652
2023-03-23T15:50:02.066Z,981.4097
2023-03-23T15:51:01.555Z,981.2652
2023-03-23T15:52:04.665Z,981.4963
2023-03-23T15:53:02.300Z,981.2652
2023-03-23T15:54:09.082Z,981.2652
2023-03-23T15:55:02.142Z,981.2802
2023-03-23T15:56:01.624Z,981.323
2023-03-23T15:57:02.292Z,981.2885
2023-03-23T15:58:02.183Z,981.3246
2023-03-23T15:59:01.526Z,981.1513
2023-03-23T16:00:03.623Z,981.1818
2023-03-23T16:01:03.170Z,981.1323
2023-03-23T16:02:04.567Z,981.1901
2023-03-23T16:03:02.229Z,981.2767
2023-03-23T16:04:01.424Z,981.1323
2023-03-23T16:05:01.943Z,981.2478
2023-03-23T16:06:03.096Z,981.054
2023-03-23T16:07:03.257Z,981.4211
2023-03-23T16:08:03.686Z,981.2478
2023-03-23T16:09:01.723Z,981.1406
2023-03-23T16:10:01.434Z,981.1989
2023-03-23T16:11:01.877Z,981.1634
2023-03-23T16:12:02.639Z,981.1056
2023-03-23T16:13:01.899Z,981.3428
2023-03-23T16:14:02.070Z,981.3428
2023-03-23T16:15:01.551Z,981.1406
2023-03-23T16:16:03.702Z,981.2478
2023-03-23T16:17:02.444Z,981.3428
2023-03-23T16:18:04.039Z,981.219
2023-03-23T16:19:01.670Z,981.0746
2023-03-23T16:20:02.119Z,981.1901
2023-03-23T16:21:01.548Z,981.0457
2023-03-23T16:22:02.093Z,981.1746
2023-03-23T16:23:02.821Z,981.139
2023-03-23T16:24:01.492Z,981.0952
2023-03-23T16:25:01.952Z,981.1901
2023-03-23T16:26:01.451Z,981.1901
2023-03-23T16:27:04.676Z,980.9879
2023-03-23T16:28:02.106Z,981.1035
2023-03-23T16:29:12.701Z,981.219
2023-03-23T16:30:04.261Z,981.0206
2023-03-23T16:31:01.647Z,980.9768
2023-03-23T16:32:09.431Z,981.165
2023-03-23T16:33:02.680Z,981.1294
2023-03-23T16:34:01.453Z,981.1294
2023-03-23T16:35:01.949Z,981.131
2023-03-23T16:36:03.140Z,981.1687
2023-03-23T16:37:05.050Z,981.3641
2023-03-23T16:38:07.182Z,981.2131
2023-03-23T16:39:01.537Z,981.1265